Time;durP1;ratioP1;P1;durP2;ratioP2;P2;SDS_P1;SDS_P2;PMS_P1;PMS_P2;Temp;Humidity;BMP_temperature;BMP_pressure;BME280_temperature;BME280_humidity;BME280_pressure;Samples;Min_cycle;Max_cycle;Signal;HPM_P1;HPM_P2
2022/09/20 00:01:40;;;;;;;4.00;3.20;;;;;;;8.92;100.00;153649.88;5036274;28;20542;-86
2022/09/20 00:04:07;;;;;;;5.80;3.40;;;;;;;8.93;100.00;153652.44;5014276;28;20494;-86
2022/09/20 00:06:34;;;;;;;4.73;3.90;;;;;;;8.93;100.00;153652.44;5036190;28;20531;-86
2022/09/20 00:09:02;;;;;;;5.27;3.30;;;;;;;8.96;100.00;153660.19;5033215;28;20439;-86
2022/09/20 00:11:32;;;;;;;3.60;3.10;;;;;;;8.95;100.00;153658.91;5050709;28;20451;-86
2022/09/20 00:14:00;;;;;;;5.80;3.53;;;;;;;8.97;100.00;153662.81;5017348;28;20430;-86
2022/09/20 00:16:28;;;;;;;3.83;3.33;;;;;;;8.98;100.00;153666.66;5033268;28;20454;-86
2022/09/20 00:18:56;;;;;;;4.63;3.73;;;;;;;8.98;100.00;153666.66;5051852;28;20439;-86
2022/09/20 00:21:24;;;;;;;4.90;3.07;;;;;;;8.97;100.00;153662.81;5051905;28;20523;-86
2022/09/20 00:23:52;;;;;;;4.30;3.23;;;;;;;8.97;100.00;153662.81;5050861;28;20451;-86
2022/09/20 00:26:19;;;;;;;4.37;3.40;;;;;;;8.97;100.00;153664.09;5050317;28;20819;-86
2022/09/20 00:28:47;;;;;;;3.83;2.77;;;;;;;8.95;100.00;153657.59;5051984;28;20439;-86
2022/09/20 00:31:14;;;;;;;5.93;3.27;;;;;;;8.94;100.00;153655.03;5051680;28;20526;-86
2022/09/20 00:36:26;;;;;;;4.50;3.37;;;;;;;8.93;100.00;153652.44;5043358;28;20440;-86
2022/09/20 00:38:55;;;;;;;4.17;2.63;;;;;;;8.91;100.00;153647.28;5030004;28;20483;-86
2022/09/20 00:41:22;;;;;;;3.60;2.90;;;;;;;8.90;100.00;153644.66;5014390;28;20450;-86
2022/09/20 00:43:50;;;;;;;4.10;3.43;;;;;;;8.90;100.00;153645.97;5014397;28;20490;-86
2022/09/20 00:46:23;;;;;;;5.23;3.37;;;;;;;8.87;100.00;153638.22;5031063;28;20454;-86
2022/09/20 00:48:51;;;;;;;3.20;2.90;;;;;;;8.82;100.00;153623.97;5029642;28;20448;-86
2022/09/20 00:51:22;;;;;;;4.80;3.60;;;;;;;8.81;100.00;153621.41;5013443;28;20435;-86
2022/09/20 00:53:50;;;;;;;5.80;3.93;;;;;;;8.81;100.00;153621.41;5030047;28;20505;-86
2022/09/20 00:56:21;;;;;;;5.70;3.03;;;;;;;8.80;100.00;153618.81;5038631;28;20452;-86
2022/09/20 00:58:54;;;;;;;4.87;3.30;;;;;;;8.78;100.00;153614.97;5046888;28;20454;-86
2022/09/20 01:01:21;;;;;;;3.00;2.63;;;;;;;8.80;100.00;153618.81;5032725;28;20944;-86
2022/09/20 01:03:48;;;;;;;2.80;2.33;;;;;;;8.79;100.00;153616.25;5029847;28;20471;-86
2022/09/20 01:06:16;;;;;;;4.03;3.07;;;;;;;8.75;100.00;153607.19;5031033;28;20487;-86
2022/09/20 01:08:46;;;;;;;3.53;2.63;;;;;;;8.75;100.00;153605.91;5013467;28;20448;-86
2022/09/20 01:11:13;;;;;;;4.47;2.50;;;;;;;8.74;100.00;153603.28;5012902;28;20432;-86
2022/09/20 01:13:39;;;;;;;6.03;3.60;;;;;;;8.73;100.00;153600.72;5013347;28;20938;-86
2022/09/20 01:16:08;;;;;;;3.33;2.83;;;;;;;8.71;100.00;153595.56;5049943;28;20461;-86
2022/09/20 01:18:35;;;;;;;3.87;2.40;;;;;;;8.70;100.00;153592.97;5033639;28;20447;-86
2022/09/20 01:21:02;;;;;;;4.53;2.67;;;;;;;8.70;100.00;153592.97;5012520;28;20491;-86
2022/09/20 01:23:44;;;;;;;2.30;2.10;;;;;;;8.67;100.00;153586.50;5013394;28;20511;-86
2022/09/20 01:26:39;;;;;;;4.50;2.70;;;;;;;8.70;100.00;153592.97;5039680;28;20447;-86
2022/09/20 01:29:15;;;;;;;4.23;2.47;;;;;;;8.70;100.00;153592.97;5033437;28;20435;-86
2022/09/20 01:31:46;;;;;;;3.13;2.50;;;;;;;8.72;100.00;153599.44;5025311;28;20458;-86
2022/09/20 01:34:14;;;;;;;2.60;2.20;;;;;;;8.75;100.00;153605.91;5023572;28;20460;-86
2022/09/20 01:36:44;;;;;;;5.30;2.07;;;;;;;8.78;100.00;153613.66;5030568;28;20416;-86
2022/09/20 01:39:18;;;;;;;4.63;2.20;;;;;;;8.81;100.00;153622.72;5030855;28;20566;-86
2022/09/20 01:41:48;;;;;;;2.67;2.13;;;;;;;8.83;100.00;153626.59;5030437;28;20416;-86
2022/09/20 01:44:21;;;;;;;4.63;2.43;;;;;;;8.87;100.00;153638.22;5012719;28;20824;-86
2022/09/20 01:46:51;;;;;;;5.10;2.10;;;;;;;8.91;100.00;153647.28;5029480;28;20474;-86
2022/09/20 01:49:29;;;;;;;3.93;2.27;;;;;;;8.90;100.00;153645.97;5031564;28;20473;-86
2022/09/20 01:52:38;;;;;;;2.70;2.03;;;;;;;8.92;100.00;153649.88;5030970;28;20452;-86
2022/09/20 01:55:37;;;;;;;2.53;2.33;;;;;;;8.96;100.00;153660.19;5029077;28;20444;-86
2022/09/20 01:58:43;;;;;;;4.77;2.70;;;;;;;8.95;100.00;153657.59;5001415;28;20447;-86
2022/09/20 02:01:47;;;;;;;7.33;2.33;;;;;;;8.98;100.00;153665.34;4971655;28;20614;-86
2022/09/20 02:04:39;;;;;;;2.40;1.80;;;;;;;9.01;100.00;153673.13;4950898;28;20481;-86
2022/09/20 02:07:20;;;;;;;4.13;2.40;;;;;;;8.99;100.00;153667.97;5023854;28;20937;-86
2022/09/20 02:10:07;;;;;;;2.30;1.80;;;;;;;8.99;100.00;153667.97;5048817;28;20458;-86
2022/09/20 02:12:52;;;;;;;2.73;2.37;;;;;;;9.00;100.00;153671.81;5034404;28;20505;-86
2022/09/20 02:15:41;;;;;;;3.73;2.23;;;;;;;8.98;100.00;153666.66;5052068;28;20446;-86
2022/09/20 02:18:17;;;;;;;5.60;2.30;;;;;;;8.99;100.00;153669.25;5036564;28;20898;-86
2022/09/20 02:20:52;;;;;;;3.63;2.50;;;;;;;9.00;100.00;153671.81;5035415;28;20959;-86
2022/09/20 02:23:35;;;;;;;4.30;2.20;;;;;;;9.01;100.00;153673.13;5021716;28;20474;-86
2022/09/20 02:26:25;;;;;;;3.30;2.57;;;;;;;9.00;100.00;153670.56;5034085;28;20431;-86
2022/09/20 02:28:55;;;;;;;3.70;2.90;;;;;;;9.04;100.00;153680.88;5016132;28;20443;-86
2022/09/20 02:31:28;;;;;;;4.90;1.87;;;;;;;9.04;100.00;153680.88;5015815;28;20432;-86
2022/09/20 02:34:22;;;;;;;4.07;2.67;;;;;;;9.06;100.00;153686.06;5053356;28;20438;-86
2022/09/20 02:36:57;;;;;;;3.27;2.60;;;;;;;9.06;100.00;153687.34;5035523;28;20453;-86
2022/09/20 02:39:32;;;;;;;3.20;2.57;;;;;;;9.09;100.00;153695.13;5053219;28;20938;-86
2022/09/20 02:42:04;;;;;;;7.20;2.57;;;;;;;9.11;100.00;153698.97;5047947;28;20483;-86
2022/09/20 02:44:43;;;;;;;6.47;2.50;;;;;;;9.13;100.00;153704.19;5031389;28;20838;-86
2022/09/20 02:47:20;;;;;;;3.63;2.63;;;;;;;9.11;100.00;153698.97;5016365;28;20446;-86
2022/09/20 02:49:58;;;;;;;2.80;2.30;;;;;;;9.13;100.00;153705.44;5016231;28;20448;-86
2022/09/20 02:52:29;;;;;;;2.90;2.20;;;;;;;9.17;100.00;153714.50;5043395;28;20459;-86
2022/09/20 02:55:01;;;;;;;3.20;2.40;;;;;;;9.19;100.00;153719.69;5034831;28;20435;-86
2022/09/20 02:57:36;;;;;;;4.93;2.83;;;;;;;9.18;100.00;153718.41;5034434;28;20454;-86
2022/09/20 03:00:05;;;;;;;2.80;2.07;;;;;;;9.20;100.00;153722.28;5022303;28;20431;-86
2022/09/20 03:02:40;;;;;;;2.50;1.87;;;;;;;9.19;100.00;153719.69;5031730;28;20958;-86
2022/09/20 03:05:13;;;;;;;4.33;2.20;;;;;;;9.15;100.00;153710.66;5015321;28;20467;-86
2022/09/20 03:07:49;;;;;;;3.60;2.27;;;;;;;9.20;100.00;153722.28;5040102;28;20456;-86
2022/09/20 03:10:22;;;;;;;2.77;2.10;;;;;;;9.18;100.00;153717.13;5014860;28;20454;-86
2022/09/20 03:13:10;;;;;;;2.90;2.60;;;;;;;9.19;100.00;153719.69;5033783;28;20454;-86
2022/09/20 03:15:42;;;;;;;5.70;3.67;;;;;;;9.18;100.00;153717.13;5030321;28;20434;-86
2022/09/20 03:18:11;;;;;;;3.20;2.20;;;;;;;9.19;100.00;153719.69;5033305;28;20448;-86
2022/09/20 03:20:46;;;;;;;3.23;2.13;;;;;;;9.16;100.00;153711.91;5015302;28;20513;-86
2022/09/20 03:23:23;;;;;;;3.90;2.20;;;;;;;9.09;100.00;153695.13;5033000;28;20917;-86
2022/09/20 03:25:54;;;;;;;2.33;2.00;;;;;;;9.06;100.00;153686.06;5033406;28;20423;-86
2022/09/20 03:28:34;;;;;;;3.80;2.77;;;;;;;9.07;100.00;153689.97;5015936;28;20793;-86
2022/09/20 03:31:07;;;;;;;4.00;2.47;;;;;;;9.06;100.00;153687.34;5034854;28;21008;-86
2022/09/20 03:33:41;;;;;;;4.70;2.20;;;;;;;9.07;100.00;153688.66;5024834;28;20795;-86
2022/09/20 03:36:22;;;;;;;3.90;2.80;;;;;;;9.08;100.00;153691.25;5052938;28;20919;-86
2022/09/20 03:39:02;;;;;;;4.07;2.50;;;;;;;9.11;100.00;153698.97;5052667;28;20569;-86
2022/09/20 03:41:42;;;;;;;4.30;2.20;;;;;;;9.10;100.00;153696.41;5034920;28;20430;-86
2022/09/20 03:44:20;;;;;;;2.70;2.07;;;;;;;9.10;100.00;153697.72;5034631;28;20504;-86
2022/09/20 03:46:48;;;;;;;3.73;2.00;;;;;;;9.11;100.00;153698.97;5044604;28;20507;-86
2022/09/20 03:49:49;;;;;;;8.73;3.07;;;;;;;9.11;100.00;153698.97;5030897;28;20458;-86
2022/09/20 03:52:33;;;;;;;3.33;2.57;;;;;;;9.13;100.00;153704.19;5032671;28;20436;-86
2022/09/20 03:55:19;;;;;;;5.60;2.17;;;;;;;9.10;100.00;153696.41;5014430;28;20846;-86
2022/09/20 03:58:02;;;;;;;3.33;2.60;;;;;;;9.10;100.00;153696.41;5014335;28;20452;-86
2022/09/20 04:00:41;;;;;;;2.40;2.20;;;;;;;9.17;100.00;153714.50;5015794;28;20897;-86
2022/09/20 04:03:17;;;;;;;3.40;2.30;;;;;;;9.09;100.00;153695.13;5014366;28;20444;-86
2022/09/20 04:05:53;;;;;;;4.60;2.87;;;;;;;9.13;100.00;153705.44;5034030;28;20850;-86
2022/09/20 04:08:34;;;;;;;3.93;2.23;;;;;;;9.17;100.00;153714.50;5020862;28;20857;-86
2022/09/20 04:11:07;;;;;;;3.30;2.10;;;;;;;9.19;100.00;153719.69;5050106;28;21030;-86
2022/09/20 04:13:39;;;;;;;3.23;2.70;;;;;;;9.20;100.00;153722.28;5023064;28;20517;-86
2022/09/20 04:16:16;;;;;;;3.03;2.33;;;;;;;9.28;100.00;153742.97;5052103;28;20814;-86
2022/09/20 04:18:45;;;;;;;3.03;2.53;;;;;;;9.19;100.00;153719.69;5034292;28;20446;-86
2022/09/20 04:21:18;;;;;;;2.50;2.30;;;;;;;9.19;100.00;153719.69;5028307;28;20547;-86
2022/09/20 04:23:52;;;;;;;2.40;2.17;;;;;;;9.17;100.00;153714.50;5032770;28;20641;-86
2022/09/20 04:26:23;;;;;;;3.17;2.40;;;;;;;9.17;100.00;153715.81;5033574;28;20466;-86
2022/09/20 04:28:54;;;;;;;3.17;2.20;;;;;;;9.23;100.00;153728.75;5051734;28;20416;-86
2022/09/20 04:31:34;;;;;;;4.90;2.63;;;;;;;9.25;100.00;153733.91;5045518;28;20436;-86
2022/09/20 04:34:02;;;;;;;3.50;2.60;;;;;;;9.21;100.00;153724.88;5013355;28;20436;-86
2022/09/20 04:36:48;;;;;;;5.00;2.80;;;;;;;9.19;100.00;153720.97;5013739;28;20779;-86
2022/09/20 04:39:24;;;;;;;3.57;2.40;;;;;;;9.22;100.00;153727.44;5033269;28;20463;-86
2022/09/20 04:42:30;;;;;;;7.83;3.07;;;;;;;9.24;100.00;153732.59;5024671;28;20455;-86
2022/09/20 04:45:29;;;;;;;4.67;2.93;;;;;;;9.24;100.00;153732.59;5013744;28;20468;-87
2022/09/20 04:48:34;;;;;;;3.47;3.00;;;;;;;9.19;100.00;153719.69;5014272;28;20444;-87
2022/09/20 04:51:29;;;;;;;3.70;3.17;;;;;;;9.16;100.00;153711.91;5013442;28;21012;-87
2022/09/20 04:54:22;;;;;;;4.93;3.67;;;;;;;9.14;100.00;153706.75;5006462;28;20432;-87
2022/09/20 04:57:04;;;;;;;5.00;3.50;;;;;;;9.11;100.00;153698.97;5029460;28;20575;-88
2022/09/20 04:59:44;;;;;;;6.20;3.53;;;;;;;9.12;100.00;153702.88;5038832;28;20440;-88
2022/09/20 05:02:56;;;;;;;5.67;4.40;;;;;;;9.11;100.00;153698.97;5012805;28;20552;-88
2022/09/20 05:05:47;;;;;;;6.63;4.37;;;;;;;9.13;100.00;153705.44;5012903;28;20974;-88
2022/09/20 05:08:34;;;;;;;7.87;4.73;;;;;;;9.14;100.00;153708.03;5030651;28;20453;-87
2022/09/20 05:11:29;;;;;;;6.30;4.90;;;;;;;9.13;100.00;153704.19;5049985;28;20453;-87
2022/09/20 05:14:28;;;;;;;5.77;4.23;;;;;;;9.13;100.00;153704.19;5017298;28;20436;-86
2022/09/20 05:17:09;;;;;;;5.70;4.07;;;;;;;9.12;100.00;153702.88;5015325;28;20460;-86
2022/09/20 05:19:43;;;;;;;5.47;3.70;;;;;;;9.12;100.00;153702.88;5014972;28;20459;-85
2022/09/20 05:22:26;;;;;;;5.33;4.10;;;;;;;9.09;100.00;153695.13;5015264;28;20456;-85
2022/09/20 05:25:11;;;;;;;5.30;4.10;;;;;;;9.10;100.00;153696.41;5014897;28;20466;-85
2022/09/20 05:27:42;;;;;;;6.83;3.97;;;;;;;9.10;100.00;153696.41;5015283;28;20435;-85
2022/09/20 05:30:29;;;;;;;5.83;4.07;;;;;;;9.08;100.00;153692.50;5050478;28;20435;-85
2022/09/20 05:33:05;;;;;;;4.33;3.80;;;;;;;9.08;100.00;153691.25;5034499;28;20474;-85
2022/09/20 05:35:37;;;;;;;8.60;3.90;;;;;;;9.07;100.00;153689.97;5056282;28;20414;-85
2022/09/20 05:38:10;;;;;;;4.43;3.20;;;;;;;9.07;100.00;153689.97;5035538;28;20467;-85
2022/09/20 05:40:49;;;;;;;6.67;4.10;;;;;;;9.07;100.00;153688.66;5036001;28;20439;-85
2022/09/20 05:43:20;;;;;;;4.80;3.70;;;;;;;9.07;100.00;153688.66;5035129;28;20489;-85
2022/09/20 05:45:58;;;;;;;4.10;3.60;;;;;;;9.07;100.00;153688.66;5034915;28;20582;-85
2022/09/20 05:48:35;;;;;;;5.10;4.30;;;;;;;9.07;100.00;153689.97;5034710;28;20443;-85
2022/09/20 05:51:07;;;;;;;6.30;3.63;;;;;;;9.06;100.00;153686.06;5032872;28;20482;-85
2022/09/20 05:53:55;;;;;;;4.30;3.70;;;;;;;9.08;100.00;153692.50;5014141;28;20582;-85
2022/09/20 05:56:34;;;;;;;8.30;4.50;;;;;;;9.13;100.00;153704.19;5015705;28;20440;-85
2022/09/20 05:59:20;;;;;;;7.53;4.30;;;;;;;9.17;100.00;153714.50;5036190;28;20426;-85
2022/09/20 06:02:03;;;;;;;4.20;3.73;;;;;;;9.19;100.00;153720.97;5014631;28;20448;-85
2022/09/20 06:04:35;;;;;;;5.70;3.87;;;;;;;9.22;100.00;153727.44;5009656;28;20543;-85
2022/09/20 06:07:08;;;;;;;4.03;3.43;;;;;;;9.24;100.00;153731.34;5016259;28;20449;-85
2022/09/20 06:09:48;;;;;;;5.17;3.83;;;;;;;9.27;100.00;153740.38;5014869;28;20495;-83
2022/09/20 06:12:23;;;;;;;4.43;3.50;;;;;;;9.26;100.00;153737.81;5028543;28;20439;-86
2022/09/20 06:14:58;;;;;;;6.00;4.30;;;;;;;9.28;100.00;153742.97;5035163;28;20415;-85
2022/09/20 06:17:28;;;;;;;6.20;4.10;;;;;;;9.31;100.00;153750.75;5036442;28;20512;-86
2022/09/20 06:20:09;;;;;;;6.17;4.10;;;;;;;9.33;100.00;153755.91;5033928;28;20440;-85
2022/09/20 06:22:39;;;;;;;4.20;3.60;;;;;;;9.36;100.00;153763.66;5030354;28;20447;-85
2022/09/20 06:25:15;;;;;;;5.07;3.83;;;;;;;9.37;100.00;153766.22;5014317;28;20466;-86
2022/09/20 06:27:45;;;;;;;4.10;3.70;;;;;;;9.42;100.00;153779.22;5013131;28;20804;-85
2022/09/20 06:30:16;;;;;;;7.80;3.97;;;;;;;9.41;100.00;153776.59;5019978;28;20858;-86
2022/09/20 06:32:58;;;;;;;6.40;3.70;;;;;;;9.39;100.00;153771.44;5014075;28;20440;-85
2022/09/20 06:35:29;;;;;;;7.50;4.03;;;;;;;9.50;100.00;153799.91;5012868;28;20447;-85
2022/09/20 06:43:35;;;;;;;5.03;3.60;;;;;;;9.80;100.00;153877.50;5033153;28;20945;-87
2022/09/20 06:46:02;;;;;;;4.40;4.00;;;;;;;9.82;100.00;153880.13;5046047;28;20485;-88
2022/09/20 06:48:30;;;;;;;5.00;4.23;;;;;;;9.89;100.00;153898.22;5020137;28;20947;-88
2022/09/20 06:50:57;;;;;;;5.20;4.70;;;;;;;9.98;100.00;153921.53;5033327;28;20443;-88
2022/09/20 06:53:27;;;;;;;5.53;4.10;;;;;;;10.01;100.00;153930.56;5034310;28;20534;-88
2022/09/20 06:55:54;;;;;;;7.30;4.73;;;;;;;9.98;100.00;153922.78;5036687;28;20452;-88
2022/09/20 06:58:21;;;;;;;5.27;4.30;;;;;;;10.02;100.00;153933.16;5041784;28;20542;-87
2022/09/20 07:00:48;;;;;;;4.93;4.43;;;;;;;10.15;100.00;153966.88;5022749;28;20535;-88
2022/09/20 07:03:14;;;;;;;6.10;4.07;;;;;;;10.32;100.00;154010.91;5037624;28;20455;-88
2022/09/20 07:05:42;;;;;;;7.27;4.03;;;;;;;10.65;100.00;154095.03;5043509;28;20487;-89
2022/09/20 07:08:09;;;;;;;7.80;4.60;;;;;;;10.99;100.00;154183.09;5037187;28;20964;-89
2022/09/20 07:10:36;;;;;;;5.30;4.33;;;;;;;11.47;100.00;154304.84;5015358;28;20514;-89
2022/09/20 07:13:02;;;;;;;8.70;3.80;;;;;;;11.78;100.00;154385.22;5037270;28;20467;-89
2022/09/20 07:15:32;;;;;;;5.40;3.97;;;;;;;12.26;100.00;154507.13;5034561;28;20530;-88
2022/09/20 07:17:59;;;;;;;6.53;4.20;;;;;;;12.51;100.00;154571.94;5040764;28;20512;-85
2022/09/20 07:20:26;;;;;;;12.23;4.30;;;;;;;12.79;100.00;154644.53;5024642;28;20436;-88
2022/09/20 07:22:54;;;;;;;11.73;5.17;;;;;;;12.74;94.94;154631.56;5023376;28;20491;-89
2022/09/20 07:25:21;;;;;;;5.93;3.83;;;;;;;12.64;99.23;154605.66;5015435;28;20471;-89
2022/09/20 07:27:50;;;;;;;6.23;4.20;;;;;;;12.58;95.63;154590.06;5033280;28;20546;-88
2022/09/20 07:30:17;;;;;;;6.13;3.67;;;;;;;12.44;96.20;154553.78;5046738;28;20506;-88
2022/09/20 07:32:44;;;;;;;9.27;4.07;;;;;;;12.24;99.47;154503.19;5035252;28;20447;-87
2022/09/20 07:35:11;;;;;;;4.67;3.33;;;;;;;12.29;96.48;154514.84;5035670;28;20441;-88
2022/09/20 07:37:40;;;;;;;7.60;6.30;;;;;;;12.17;98.46;154486.38;5053220;28;20490;-88
2022/09/20 07:40:10;;;;;;;6.23;4.50;;;;;;;11.98;95.55;154437.09;5023048;28;20446;-87
2022/09/20 07:42:37;;;;;;;8.33;3.57;;;;;;;11.72;98.44;154368.41;5015612;28;20446;-86
2022/09/20 07:45:04;;;;;;;7.60;4.53;;;;;;;11.62;95.04;154345.00;5019550;28;20828;-86
2022/09/20 07:47:34;;;;;;;5.17;3.80;;;;;;;11.73;100.00;154371.03;5035010;28;20450;-87
2022/09/20 07:50:01;;;;;;;6.03;3.70;;;;;;;11.67;95.80;154355.41;5026319;28;20498;-88
2022/09/20 07:52:28;;;;;;;5.13;3.80;;;;;;;11.54;97.59;154323.03;5018285;28;20538;-83
2022/09/20 07:54:55;;;;;;;8.07;4.43;;;;;;;11.48;97.26;154308.75;5023947;28;20451;-88
2022/09/20 07:57:23;;;;;;;7.90;4.13;;;;;;;11.38;98.90;154282.84;5024476;28;20513;-87
2022/09/20 07:59:49;;;;;;;4.67;3.83;;;;;;;11.36;99.89;154277.63;5030589;28;20451;-88
2022/09/20 08:02:16;;;;;;;8.90;4.37;;;;;;;11.50;97.16;154312.63;5027380;28;20476;-88
2022/09/20 08:04:43;;;;;;;8.37;3.97;;;;;;;11.82;95.72;154394.31;5014573;28;20507;-89
2022/09/20 08:07:11;;;;;;;4.23;3.70;;;;;;;12.50;95.77;154569.31;5030522;28;20431;-77
2022/09/20 08:09:38;;;;;;;7.40;3.90;;;;;;;12.66;89.64;154610.81;5031111;28;20456;-76
2022/09/20 08:12:07;;;;;;;7.13;3.60;;;;;;;12.50;92.42;154570.63;5039864;28;20439;-77
2022/09/20 08:14:35;;;;;;;7.30;4.07;;;;;;;12.21;92.85;154496.72;5030973;28;20451;-76
2022/09/20 08:17:02;;;;;;;4.27;2.50;;;;;;;12.02;90.82;154446.19;5028789;28;20474;-76
2022/09/20 08:19:29;;;;;;;4.50;3.30;;;;;;;12.13;90.00;154475.97;5029832;28;20444;-76
2022/09/20 08:21:56;;;;;;;4.40;3.20;;;;;;;12.46;93.33;154560.28;5029318;28;20934;-77
2022/09/20 08:24:24;;;;;;;5.27;2.73;;;;;;;12.54;87.10;154581.03;5011332;28;20490;-76
2022/09/20 08:26:51;;;;;;;5.57;2.97;;;;;;;12.80;87.99;154647.16;5028519;28;20507;-76
2022/09/20 08:29:18;;;;;;;6.37;2.77;;;;;;;12.85;83.12;154660.13;5010495;28;20468;-76
2022/09/20 08:31:47;;;;;;;3.80;2.47;;;;;;;12.61;85.60;154599.16;4995674;28;20459;-76
2022/09/20 08:34:15;;;;;;;3.57;2.00;;;;;;;12.75;82.21;154634.19;5010566;28;20432;-76
2022/09/20 08:36:45;;;;;;;7.17;3.27;;;;;;;12.69;83.45;154618.63;5015455;28;20439;-76
2022/09/20 08:39:12;;;;;;;5.10;2.63;;;;;;;12.72;84.59;154626.41;5015989;28;20572;-76
2022/09/20 08:41:42;;;;;;;4.03;2.20;;;;;;;12.66;87.11;154610.81;5011465;28;20464;-77
2022/09/20 08:44:15;;;;;;;3.03;2.63;;;;;;;12.57;89.15;154587.50;5011995;28;20439;-76
2022/09/20 08:46:47;;;;;;;4.83;3.00;;;;;;;12.28;83.76;154512.31;5011876;28;20859;-76
2022/09/20 08:49:17;;;;;;;3.70;2.33;;;;;;;12.16;84.75;154482.47;5036480;28;20966;-76
2022/09/20 08:51:49;;;;;;;5.00;2.40;;;;;;;12.23;82.14;154501.91;5044985;28;20968;-76
2022/09/20 08:54:15;;;;;;;2.87;2.57;;;;;;;12.17;83.39;154486.38;5049693;28;20454;-76
2022/09/20 08:56:43;;;;;;;4.20;2.13;;;;;;;12.21;82.07;154495.41;5032285;28;20918;-76
2022/09/20 08:59:15;;;;;;;4.23;1.90;;;;;;;12.17;85.86;154485.06;5043327;28;20440;-76
2022/09/20 09:01:42;;;;;;;6.57;2.40;;;;;;;12.18;83.45;154488.94;5022859;28;20435;-76
2022/09/20 09:04:14;;;;;;;6.20;2.57;;;;;;;12.29;85.17;154514.84;5050216;28;20439;-75
2022/09/20 09:06:42;;;;;;;4.17;2.20;;;;;;;12.34;85.44;154527.88;5033207;28;20578;-76
2022/09/20 09:09:14;;;;;;;4.20;1.40;;;;;;;12.29;81.43;154514.84;5025045;28;20805;-76
2022/09/20 09:11:41;;;;;;;3.77;2.20;;;;;;;12.30;81.50;154518.78;5041453;28;20491;-76
2022/09/20 09:16:53;;;;;;;4.53;1.77;;;;;;;12.15;79.92;154479.91;5012564;28;20475;-76
2022/09/20 09:19:29;;;;;;;8.17;2.00;;;;;;;12.13;79.55;154475.97;5013788;28;20448;-76
2022/09/20 09:21:59;;;;;;;4.30;2.00;;;;;;;12.18;84.53;154488.94;5013418;28;20568;-76
2022/09/20 09:24:26;;;;;;;2.73;2.40;;;;;;;12.18;82.99;154488.94;5013408;28;20883;-76
2022/09/20 09:27:06;;;;;;;4.10;1.70;;;;;;;12.23;83.93;154500.66;5022575;28;20989;-76
2022/09/20 09:29:32;;;;;;;2.77;1.90;;;;;;;12.13;80.61;154475.97;5022717;28;20477;-76
2022/09/20 09:32:19;;;;;;;2.40;1.87;;;;;;;12.07;83.97;154460.41;5046555;28;20551;-76
2022/09/20 09:34:47;;;;;;;2.40;1.70;;;;;;;12.02;85.48;154447.44;5014266;28;20446;-76
2022/09/20 09:37:23;;;;;;;6.20;2.30;;;;;;;11.94;80.50;154426.72;5044420;28;20776;-76
2022/09/20 09:40:06;;;;;;;3.70;1.70;;;;;;;11.84;82.20;154399.50;5013307;28;20451;-76
2022/09/20 09:42:33;;;;;;;1.90;1.40;;;;;;;11.76;82.90;154380.06;5011939;28;20930;-76
2022/09/20 09:45:10;;;;;;;5.80;1.90;;;;;;;11.78;79.88;154385.22;5028506;28;20471;-76
2022/09/20 09:47:38;;;;;;;3.87;1.77;;;;;;;11.83;80.28;154396.94;5005423;28;20490;-76
2022/09/20 09:50:12;;;;;;;3.97;1.80;;;;;;;11.82;80.09;154395.63;5048822;28;20453;-76
2022/09/20 09:52:39;;;;;;;4.93;1.67;;;;;;;11.80;79.73;154389.16;5048608;28;20805;-76
2022/09/20 09:55:07;;;;;;;3.70;1.80;;;;;;;11.97;81.17;154434.50;5027980;28;20491;-75
2022/09/20 09:57:41;;;;;;;3.00;1.40;;;;;;;12.14;81.03;154478.59;5046385;28;20682;-76
2022/09/20 10:00:11;;;;;;;6.00;2.70;;;;;;;12.23;81.26;154499.34;5026655;28;20815;-76
2022/09/20 10:02:53;;;;;;;3.70;2.37;;;;;;;12.31;83.15;154521.34;5026387;28;20447;-76
2022/09/20 10:05:24;;;;;;;6.80;2.33;;;;;;;12.27;81.61;154509.69;5034643;28;20507;-76
2022/09/20 10:08:00;;;;;;;5.67;2.40;;;;;;;12.23;80.78;154501.91;5033188;28;20458;-76
2022/09/20 10:10:33;;;;;;;3.87;2.20;;;;;;;12.21;82.81;154496.72;5020067;28;20484;-76
2022/09/20 10:13:08;;;;;;;4.20;2.70;;;;;;;12.18;79.43;154488.94;5020519;28;20448;-76
2022/09/20 10:15:40;;;;;;;7.10;3.23;;;;;;;12.15;81.03;154481.16;4996416;28;20782;-77
2022/09/20 10:18:17;;;;;;;4.37;2.37;;;;;;;12.23;81.94;154501.91;5032940;28;20867;-76
2022/09/20 10:21:06;;;;;;;5.60;2.00;;;;;;;12.26;79.84;154507.13;5035759;28;20459;-76
2022/09/20 10:23:58;;;;;;;3.53;1.90;;;;;;;12.33;81.60;154526.56;5039830;28;20466;-76
2022/09/20 10:26:38;;;;;;;3.87;2.00;;;;;;;12.50;81.24;154570.63;5033380;28;20535;-76
2022/09/20 10:29:14;;;;;;;3.50;1.90;;;;;;;12.68;81.61;154616.03;5042340;28;20445;-76
2022/09/20 10:31:47;;;;;;;4.83;2.07;;;;;;;12.82;83.20;154652.31;5034888;28;20443;-76
2022/09/20 10:34:38;;;;;;;4.17;2.20;;;;;;;12.96;83.31;154688.66;5051466;28;20455;-76
2022/09/20 10:37:10;;;;;;;6.03;1.80;;;;;;;13.02;77.92;154704.25;5020003;28;20443;-76
2022/09/20 10:39:39;;;;;;;4.67;2.00;;;;;;;13.01;81.97;154700.31;5034527;28;20508;-76
2022/09/20 10:45:06;;;;;;;7.93;1.80;;;;;;;13.02;78.96;154702.94;5033362;28;20424;-76
2022/09/20 10:47:35;;;;;;;4.13;1.63;;;;;;;13.02;74.03;154704.25;5033718;28;20541;-76
2022/09/20 10:50:10;;;;;;;3.27;1.53;;;;;;;13.15;74.99;154738.03;5033092;28;20432;-75
2022/09/20 10:52:52;;;;;;;2.03;1.60;;;;;;;13.10;77.96;154725.06;5015857;28;20478;-76
2022/09/20 10:55:29;;;;;;;4.40;2.97;;;;;;;13.16;75.66;154740.59;5016232;28;20455;-76
2022/09/20 10:58:23;;;;;;;6.03;2.17;;;;;;;13.20;80.13;154751.00;5033160;28;20452;-76
2022/09/20 11:00:56;;;;;;;2.33;1.57;;;;;;;13.27;75.71;154767.84;5049224;28;20939;-75
2022/09/20 11:03:40;;;;;;;1.90;1.60;;;;;;;13.25;80.21;154763.97;5026133;28;20439;-76
2022/09/20 11:06:16;;;;;;;2.70;1.50;;;;;;;13.24;74.54;154761.34;5014635;28;20471;-76
2022/09/20 11:08:49;;;;;;;1.73;1.30;;;;;;;13.28;74.14;154770.44;5034357;28;20435;-76
2022/09/20 11:11:19;;;;;;;4.27;2.03;;;;;;;13.40;76.48;154801.56;5016564;28;20534;-76
2022/09/20 11:13:49;;;;;;;2.73;1.40;;;;;;;13.40;76.73;154802.88;5039088;28;20442;-76
2022/09/20 11:16:18;;;;;;;3.87;1.67;;;;;;;13.41;71.25;154804.19;5034361;28;20434;-76
2022/09/20 11:18:50;;;;;;;2.70;1.70;;;;;;;13.48;76.95;154822.34;5027860;28;20514;-76
2022/09/20 11:21:21;;;;;;;4.43;1.50;;;;;;;13.53;72.61;154834.06;5032150;28;20428;-76
2022/09/20 11:23:52;;;;;;;4.87;2.00;;;;;;;13.61;72.82;154854.81;5051683;28;20458;-75
2022/09/20 11:26:25;;;;;;;3.37;1.60;;;;;;;13.61;75.08;154854.81;5028811;28;20801;-76
2022/09/20 11:28:54;;;;;;;3.43;1.70;;;;;;;13.64;72.14;154862.56;5015192;28;20442;-76
2022/09/20 11:31:25;;;;;;;3.90;1.57;;;;;;;13.68;71.80;154874.28;5016083;28;20456;-76
2022/09/20 11:33:55;;;;;;;3.90;1.43;;;;;;;13.71;69.86;154882.06;5013888;28;20431;-76
2022/09/20 11:36:25;;;;;;;3.90;1.43;;;;;;;13.73;68.99;154887.25;5047908;28;20443;-76
2022/09/20 11:38:56;;;;;;;2.10;1.17;;;;;;;13.79;68.56;154901.53;5028587;28;20475;-75
2022/09/20 11:41:26;;;;;;;1.83;1.10;;;;;;;13.67;64.76;154870.34;5030985;28;20945;-76
2022/09/20 11:43:54;;;;;;;4.13;1.60;;;;;;;13.50;68.31;154826.25;5041243;28;20444;-76
2022/09/20 11:46:26;;;;;;;6.67;1.37;;;;;;;13.58;72.62;154847.03;5033413;28;20462;-76
2022/09/20 11:48:55;;;;;;;3.37;1.37;;;;;;;13.66;71.64;154867.78;5014512;28;20448;-76
2022/09/20 11:52:00;;;;;;;2.17;1.60;;;;;;;13.64;73.56;154862.56;5032361;28;20452;-76
2022/09/20 11:55:14;;;;;;;2.80;1.67;;;;;;;13.56;66.60;154841.78;5031490;28;20993;-76
2022/09/20 11:57:42;;;;;;;4.13;1.60;;;;;;;13.47;69.80;154819.78;4985786;28;20459;-76
2022/09/20 12:00:10;;;;;;;2.30;1.50;;;;;;;13.35;70.53;154789.91;5034376;28;20451;-76
2022/09/20 12:02:46;;;;;;;2.97;1.67;;;;;;;13.33;69.48;154784.72;5015091;28;20462;-76
2022/09/20 12:05:25;;;;;;;3.20;1.40;;;;;;;13.32;71.87;154782.13;5036569;28;20500;-76
2022/09/20 12:07:53;;;;;;;2.97;1.40;;;;;;;13.35;75.35;154788.59;5031437;28;20532;-76
2022/09/20 12:10:22;;;;;;;3.33;1.80;;;;;;;13.24;73.12;154760.03;5030720;28;20534;-75
2022/09/20 12:12:55;;;;;;;2.90;1.70;;;;;;;13.27;75.78;154769.13;5050895;28;20467;-76